createdAt,value
2023-01-02T00:01:59.941Z,11.48
2023-01-02T00:04:26.680Z,11.40
2023-01-02T00:06:53.726Z,10.38
2023-01-02T00:09:20.508Z,9.48
2023-01-02T00:11:47.562Z,8.27
2023-01-02T00:14:14.320Z,12.38
2023-01-02T00:16:41.417Z,9.32
2023-01-02T00:19:08.785Z,9.60
2023-01-02T00:21:35.845Z,11.02
2023-01-02T00:24:02.652Z,11.38
2023-01-02T00:26:30.268Z,11.32
2023-01-02T00:28:57.017Z,10.52
2023-01-02T00:31:24.132Z,10.82
2023-01-02T00:33:50.956Z,9.48
2023-01-02T00:36:17.998Z,8.38
2023-01-02T00:38:44.725Z,10.63
2023-01-02T00:41:11.791Z,9.45
2023-01-02T00:43:38.545Z,8.90
2023-01-02T00:46:11.274Z,9.60
2023-01-02T00:48:39.331Z,11.27
2023-01-02T00:51:06.380Z,10.63
2023-01-02T00:53:33.134Z,10.88
2023-01-02T00:56:00.179Z,10.00
2023-01-02T00:58:26.908Z,9.57
2023-01-02T01:00:54.048Z,9.90
2023-01-02T01:03:20.852Z,11.85
2023-01-02T01:05:47.899Z,10.90
2023-01-02T01:08:15.078Z,12.85
2023-01-02T01:10:42.158Z,13.63
2023-01-02T01:13:08.902Z,12.23
2023-01-02T01:15:35.958Z,13.70
2023-01-02T01:18:02.889Z,11.02
2023-01-02T01:20:30.004Z,11.38
2023-01-02T01:22:56.846Z,11.32
2023-01-02T01:25:23.901Z,13.07
2023-01-02T01:27:53.465Z,14.07
2023-01-02T01:30:20.493Z,12.05
2023-01-02T01:32:47.190Z,11.07
2023-01-02T01:35:14.313Z,14.35
2023-01-02T01:37:41.063Z,13.23
2023-01-02T01:40:08.476Z,12.75
2023-01-02T01:42:35.369Z,13.18
2023-01-02T01:45:02.575Z,14.10
2023-01-02T01:47:37.407Z,13.75
2023-01-02T01:50:08.356Z,12.55
2023-01-02T01:52:36.429Z,11.55
2023-01-02T01:55:31.617Z,10.35
2023-01-02T01:58:04.390Z,12.10
2023-01-02T02:00:31.602Z,14.02
2023-01-02T02:03:01.111Z,12.75
2023-01-02T02:05:29.681Z,14.60
2023-01-02T02:08:18.232Z,10.55
2023-01-02T02:10:45.371Z,11.73
2023-01-02T02:13:12.363Z,12.45
2023-01-02T02:15:46.712Z,9.43
2023-01-02T02:18:42.888Z,10.43
2023-01-02T02:21:15.775Z,8.82
2023-01-02T02:24:17.772Z,9.55
2023-01-02T02:26:54.779Z,9.52
2023-01-02T02:29:43.392Z,7.93
2023-01-02T02:32:19.516Z,8.13
2023-01-02T02:34:57.033Z,9.27
2023-01-02T02:37:25.467Z,8.25
2023-01-02T02:40:17.479Z,8.90
2023-01-02T02:43:19.554Z,7.85
2023-01-02T02:45:54.314Z,7.40
2023-01-02T02:48:26.778Z,8.48
2023-01-02T02:51:01.173Z,7.60
2023-01-02T02:53:36.443Z,6.35
2023-01-02T02:56:04.459Z,6.53
2023-01-02T02:58:31.732Z,6.40
2023-01-02T03:01:11.894Z,8.13
2023-01-02T03:03:39.035Z,7.03
2023-01-02T03:06:19.554Z,7.32
2023-01-02T03:08:49.641Z,6.40
2023-01-02T03:11:16.423Z,8.20
2023-01-02T03:13:56.902Z,8.23
2023-01-02T03:16:44.002Z,7.85
2023-01-02T03:19:38.994Z,9.35
2023-01-02T03:22:09.082Z,8.27
2023-01-02T03:24:37.562Z,9.05
2023-01-02T03:27:10.541Z,9.60
2023-01-02T03:29:46.649Z,10.55
2023-01-02T03:32:17.400Z,8.15
2023-01-02T03:34:44.835Z,9.65
2023-01-02T03:37:13.118Z,8.10
2023-01-02T03:39:43.404Z,9.93
2023-01-02T03:42:15.518Z,9.55
2023-01-02T03:45:09.737Z,8.82
2023-01-02T03:47:43.458Z,10.38
2023-01-02T03:50:20.196Z,10.57
2023-01-02T03:52:46.992Z,8.70
2023-01-02T03:55:14.163Z,9.77
2023-01-02T03:57:58.684Z,7.80
2023-01-02T04:00:30.481Z,9.93
2023-01-02T04:03:05.637Z,8.98
2023-01-02T04:05:38.466Z,10.95
2023-01-02T04:08:10.257Z,9.00
2023-01-02T04:10:37.666Z,11.52
2023-01-02T04:13:08.609Z,10.02
2023-01-02T04:15:36.128Z,11.25
2023-01-02T04:18:06.765Z,11.77
2023-01-02T04:20:36.353Z,11.73
2023-01-02T04:23:12.320Z,11.80
2023-01-02T04:25:43.655Z,13.13
2023-01-02T04:28:31.084Z,10.35
2023-01-02T04:31:02.999Z,10.07
2023-01-02T04:33:29.992Z,13.65
2023-01-02T04:35:56.990Z,10.63
2023-01-02T04:38:23.749Z,13.32
2023-01-02T04:40:50.808Z,13.25
2023-01-02T04:43:19.691Z,12.25
2023-01-02T04:45:48.311Z,12.88
2023-01-02T04:48:15.373Z,13.48
2023-01-02T04:50:42.678Z,14.38
2023-01-02T04:53:10.887Z,12.55
2023-01-02T04:55:38.434Z,14.70
2023-01-02T04:58:05.420Z,12.32
2023-01-02T05:00:32.608Z,13.57
2023-01-02T05:03:01.075Z,12.00
2023-01-02T05:05:28.320Z,12.95
2023-01-02T05:07:55.085Z,14.00
2023-01-02T05:10:22.121Z,14.00
2023-01-02T05:12:48.877Z,12.00
2023-01-02T05:15:15.989Z,14.27
2023-01-02T05:17:42.734Z,14.70
2023-01-02T05:20:11.505Z,13.50
2023-01-02T05:22:57.952Z,15.25
2023-01-02T05:25:25.410Z,14.02
2023-01-02T05:27:54.177Z,16.20
2023-01-02T05:30:21.594Z,13.60
2023-01-02T05:32:48.482Z,12.20
2023-01-02T05:35:15.783Z,14.57
2023-01-02T05:37:42.618Z,14.57
2023-01-02T05:40:10.191Z,16.10
2023-01-02T05:42:37.013Z,12.73
2023-01-02T05:45:04.854Z,14.70
2023-01-02T05:47:31.645Z,13.00
2023-01-02T05:49:58.674Z,12.68
2023-01-02T05:52:25.413Z,14.63
2023-01-02T05:54:52.443Z,15.93
2023-01-02T05:57:19.191Z,15.30
2023-01-02T05:59:46.236Z,15.20
2023-01-02T06:02:13.068Z,16.42
2023-01-02T06:04:40.255Z,18.02
2023-01-02T06:07:07.041Z,18.13
2023-01-02T06:09:34.124Z,18.05
2023-01-02T06:12:00.887Z,20.33
2023-01-02T06:14:27.895Z,18.48
2023-01-02T06:16:54.665Z,17.85
2023-01-02T06:19:21.727Z,21.02
2023-01-02T06:21:48.519Z,20.23
2023-01-02T06:24:15.808Z,20.20
2023-01-02T06:26:42.535Z,20.98
2023-01-02T06:29:09.616Z,22.85
2023-01-02T06:31:39.582Z,22.90
2023-01-02T06:34:06.977Z,28.08
2023-01-02T06:36:34.344Z,32.03
2023-01-02T06:39:01.529Z,33.65
2023-01-02T06:41:28.399Z,42.08
2023-01-02T06:43:55.424Z,45.78
2023-01-02T06:46:23.009Z,45.97
2023-01-02T06:48:50.065Z,44.55
2023-01-02T06:51:18.340Z,48.95
2023-01-02T06:53:45.519Z,46.47
2023-01-02T06:56:12.849Z,42.05
2023-01-02T06:58:39.972Z,41.47
2023-01-02T07:01:20.047Z,40.92
2023-01-02T07:03:47.252Z,39.10
2023-01-02T07:06:15.661Z,41.63
2023-01-02T07:08:43.286Z,39.55
2023-01-02T07:11:21.130Z,39.05
2023-01-02T07:13:49.213Z,33.97
2023-01-02T07:16:16.846Z,39.35
2023-01-02T07:18:44.052Z,40.88
2023-01-02T07:21:11.250Z,36.63
2023-01-02T07:23:38.445Z,34.00
2023-01-02T07:26:05.852Z,35.00
2023-01-02T07:28:33.234Z,38.88
2023-01-02T07:31:01.277Z,41.55
2023-01-02T07:33:28.613Z,41.20
2023-01-02T07:36:02.690Z,37.75
2023-01-02T07:38:30.176Z,35.13
2023-01-02T07:40:57.027Z,36.38
2023-01-02T07:43:24.587Z,36.40
2023-01-02T07:45:51.389Z,31.52
2023-01-02T07:48:18.761Z,32.83
2023-01-02T07:50:46.000Z,32.40
2023-01-02T07:53:13.091Z,35.60
2023-01-02T07:55:39.949Z,34.97
2023-01-02T07:58:07.027Z,32.88
2023-01-02T08:00:33.778Z,35.50
2023-01-02T08:03:00.879Z,41.15
2023-01-02T08:05:27.722Z,43.17
2023-01-02T08:07:54.716Z,47.17
2023-01-02T08:10:21.451Z,49.97
2023-01-02T08:12:48.512Z,58.45
2023-01-02T08:15:15.330Z,50.45
2023-01-02T08:17:42.411Z,52.88
2023-01-02T08:20:10.466Z,54.28
2023-01-02T08:22:37.681Z,52.70
2023-01-02T08:25:04.911Z,50.25
2023-01-02T08:27:31.982Z,48.72
2023-01-02T08:29:59.101Z,48.60
2023-01-02T08:32:26.259Z,42.75
2023-01-02T08:34:52.991Z,42.58
2023-01-02T08:37:20.133Z,35.58
2023-01-02T08:39:46.938Z,39.95
2023-01-02T08:42:13.953Z,36.75
2023-01-02T08:44:40.766Z,37.88
2023-01-02T08:47:07.896Z,36.22
2023-01-02T08:49:34.750Z,36.17
2023-01-02T08:52:01.856Z,32.55
2023-01-02T08:54:28.624Z,31.10
2023-01-02T08:56:55.698Z,33.97
2023-01-02T08:59:23.459Z,26.98
2023-01-02T09:01:50.956Z,30.48
2023-01-02T09:04:18.007Z,31.00
2023-01-02T09:06:45.187Z,28.88
2023-01-02T09:09:13.189Z,25.13
2023-01-02T09:11:45.193Z,23.98
2023-01-02T09:14:11.962Z,20.25
2023-01-02T09:16:39.059Z,23.35
2023-01-02T09:19:05.806Z,21.10
2023-01-02T09:21:32.901Z,20.08
2023-01-02T09:23:59.636Z,20.05
2023-01-02T09:26:26.852Z,20.35
2023-01-02T09:28:53.675Z,18.58
2023-01-02T09:31:20.879Z,21.58
2023-01-02T09:33:47.786Z,17.25
2023-01-02T09:36:16.725Z,15.52
2023-01-02T09:38:43.540Z,13.25
2023-01-02T09:41:36.209Z,14.63
2023-01-02T09:44:07.949Z,13.98
2023-01-02T09:47:15.005Z,12.90
2023-01-02T09:49:48.779Z,12.68
2023-01-02T09:52:20.414Z,10.85
2023-01-02T09:54:47.325Z,12.95
2023-01-02T09:57:23.904Z,11.07
2023-01-02T09:59:59.620Z,11.98
2023-01-02T10:02:35.908Z,11.77
2023-01-02T10:05:36.788Z,10.65
2023-01-02T10:08:16.020Z,11.60
2023-01-02T10:10:44.277Z,9.30
2023-01-02T10:13:32.774Z,7.88
2023-01-02T10:16:15.274Z,8.30
2023-01-02T10:18:43.935Z,9.75
2023-01-02T10:21:10.687Z,7.60
2023-01-02T10:24:05.024Z,8.25
2023-01-02T10:26:36.699Z,9.40
2023-01-02T10:29:35.350Z,5.38
2023-01-02T10:32:14.169Z,5.63
2023-01-02T10:34:44.793Z,6.05
2023-01-02T10:37:15.466Z,6.45
2023-01-02T10:39:43.762Z,6.78
2023-01-02T10:42:12.178Z,5.10
2023-01-02T10:44:45.495Z,8.48
2023-01-02T10:47:17.419Z,7.45
2023-01-02T10:49:44.572Z,5.18
2023-01-02T10:52:33.747Z,5.75
2023-01-02T10:55:01.222Z,6.20
2023-01-02T10:57:43.489Z,6.47
2023-01-02T11:00:27.220Z,4.72
2023-01-02T11:03:06.875Z,6.38
2023-01-02T11:05:34.064Z,5.30
2023-01-02T11:08:00.791Z,7.07
2023-01-02T11:10:28.801Z,7.70
2023-01-02T11:12:55.808Z,6.90
2023-01-02T11:15:27.153Z,4.70
2023-01-02T11:17:53.931Z,6.28
2023-01-02T11:20:25.671Z,4.65
2023-01-02T11:22:52.462Z,5.85
2023-01-02T11:25:27.418Z,6.05
2023-01-02T11:27:58.796Z,4.13
2023-01-02T11:31:00.921Z,5.20
2023-01-02T11:33:29.725Z,5.40
2023-01-02T11:36:03.893Z,4.97
2023-01-02T11:38:47.027Z,5.70
2023-01-02T11:41:56.556Z,4.63
2023-01-02T11:44:36.844Z,5.60
2023-01-02T11:47:04.283Z,5.72
2023-01-02T11:49:39.534Z,6.30
2023-01-02T11:52:06.597Z,5.35
2023-01-02T11:54:50.060Z,5.90
2023-01-02T11:57:23.773Z,5.03
2023-01-02T11:59:50.551Z,7.72
2023-01-02T12:02:24.621Z,5.40
2023-01-02T12:04:51.452Z,4.30
2023-01-02T12:07:45.033Z,3.88
2023-01-02T12:10:33.199Z,4.30
2023-01-02T12:13:06.500Z,6.10
2023-01-02T12:16:21.304Z,4.13
2023-01-02T12:19:00.338Z,7.65
2023-01-02T12:21:36.506Z,4.43
2023-01-02T12:24:44.163Z,5.93
2023-01-02T12:27:33.991Z,5.72
2023-01-02T12:30:04.458Z,5.10
2023-01-02T12:32:38.467Z,5.53
2023-01-02T12:35:17.824Z,4.23
2023-01-02T12:37:49.583Z,4.10
2023-01-02T12:40:22.702Z,4.25
2023-01-02T12:43:07.944Z,4.93
2023-01-02T12:46:02.993Z,5.75
2023-01-02T12:48:46.044Z,6.13
2023-01-02T12:51:17.750Z,4.28
2023-01-02T12:54:19.284Z,4.13
2023-01-02T12:56:48.910Z,5.65
2023-01-02T12:59:20.033Z,4.18
2023-01-02T13:02:02.053Z,4.28
2023-01-02T13:04:31.977Z,5.20
2023-01-02T13:07:02.485Z,5.00
2023-01-02T13:09:42.802Z,4.80
2023-01-02T13:12:14.545Z,5.95
2023-01-02T13:14:52.802Z,5.25
2023-01-02T13:17:45.072Z,6.32
2023-01-02T13:20:15.658Z,6.78
2023-01-02T13:23:06.092Z,5.72
2023-01-02T13:25:33.006Z,5.68
2023-01-02T13:28:00.454Z,5.53
2023-01-02T13:30:33.274Z,5.00
2023-01-02T13:33:01.560Z,4.18
2023-01-02T13:35:29.805Z,5.30
2023-01-02T13:37:56.881Z,4.65
2023-01-02T13:40:28.366Z,6.43
2023-01-02T13:43:03.482Z,6.05
2023-01-02T13:45:34.649Z,5.55
2023-01-02T13:48:06.778Z,6.15
2023-01-02T13:50:37.245Z,6.05
2023-01-02T13:53:10.466Z,6.88
2023-01-02T13:56:01.474Z,6.70
2023-01-02T13:58:48.623Z,7.07
2023-01-02T14:01:21.647Z,10.68
2023-01-02T14:04:07.586Z,6.28
2023-01-02T14:06:34.309Z,6.95
2023-01-02T14:09:04.434Z,8.82
2023-01-02T14:12:08.184Z,5.63
2023-01-02T14:14:46.395Z,8.18
2023-01-02T14:17:13.119Z,7.13
2023-01-02T14:19:40.307Z,7.75
2023-01-02T14:22:17.531Z,6.43
2023-01-02T14:24:46.114Z,8.15
2023-01-02T14:27:15.928Z,7.18
2023-01-02T14:29:52.903Z,7.90
2023-01-02T14:32:35.744Z,10.20
2023-01-02T14:35:04.931Z,10.00
2023-01-02T14:37:37.923Z,12.48
2023-01-02T14:40:23.317Z,14.05
2023-01-02T14:43:15.105Z,13.32
2023-01-02T14:45:43.939Z,11.73
2023-01-02T14:48:12.911Z,13.13
2023-01-02T14:50:39.967Z,17.05
2023-01-02T14:53:30.098Z,15.15
2023-01-02T14:56:01.511Z,16.13
2023-01-02T14:58:35.026Z,15.02
2023-01-02T15:01:04.654Z,13.95
2023-01-02T15:03:52.117Z,19.15
2023-01-02T15:06:21.401Z,13.88
2023-01-02T15:08:49.601Z,14.00
2023-01-02T15:11:42.118Z,17.15
2023-01-02T15:14:20.496Z,17.90
2023-01-02T15:16:55.730Z,15.40
2023-01-02T15:19:25.290Z,16.48
2023-01-02T15:21:52.666Z,16.42
2023-01-02T15:24:22.017Z,20.45
2023-01-02T15:26:49.541Z,16.58
2023-01-02T15:29:28.875Z,20.35
2023-01-02T15:31:57.747Z,24.17
2023-01-02T15:34:33.852Z,20.40
2023-01-02T15:37:04.646Z,29.08
2023-01-02T15:39:51.069Z,33.30
2023-01-02T15:42:44.536Z,29.25
2023-01-02T15:45:15.076Z,26.15
2023-01-02T15:47:46.194Z,26.75
2023-01-02T15:50:26.275Z,21.38
2023-01-02T15:52:59.302Z,22.65
2023-01-02T15:55:26.127Z,22.77
2023-01-02T15:57:54.027Z,19.35
2023-01-02T16:00:39.530Z,21.70
2023-01-02T16:03:06.921Z,21.77
2023-01-02T16:05:55.102Z,24.63
2023-01-02T16:08:23.753Z,23.35
2023-01-02T16:10:51.488Z,26.42
2023-01-02T16:13:39.082Z,25.02
2023-01-02T16:16:15.874Z,25.77
2023-01-02T16:18:46.857Z,26.20
2023-01-02T16:21:14.033Z,26.70
2023-01-02T16:23:52.200Z,31.73
2023-01-02T16:26:19.074Z,30.45
2023-01-02T16:28:46.149Z,30.75
2023-01-02T16:31:14.866Z,26.33
2023-01-02T16:33:42.458Z,25.25
2023-01-02T16:36:11.378Z,25.45
2023-01-02T16:38:55.804Z,25.83
2023-01-02T16:41:37.073Z,26.55
2023-01-02T16:44:16.393Z,29.85
2023-01-02T16:46:51.840Z,24.23
2023-01-02T16:49:24.496Z,27.90
2023-01-02T16:51:51.973Z,24.80
2023-01-02T16:54:19.717Z,25.92
2023-01-02T16:56:49.633Z,23.48
2023-01-02T16:59:16.762Z,23.17
2023-01-02T17:01:43.652Z,23.52
2023-01-02T17:04:14.038Z,24.10
2023-01-02T17:06:40.825Z,28.38
2023-01-02T17:09:07.928Z,23.95
2023-01-02T17:11:34.903Z,23.92
2023-01-02T17:14:02.052Z,25.52
2023-01-02T17:16:28.957Z,24.85
2023-01-02T17:18:56.141Z,24.10
2023-01-02T17:21:26.228Z,22.15
2023-01-02T17:23:57.975Z,22.25
2023-01-02T17:26:24.757Z,21.45
2023-01-02T17:28:51.822Z,21.10
2023-01-02T17:31:23.990Z,21.38
2023-01-02T17:33:52.654Z,21.20
2023-01-02T17:36:19.611Z,18.73
2023-01-02T17:38:46.699Z,19.05
2023-01-02T17:41:13.541Z,25.15
2023-01-02T17:43:40.587Z,21.65
2023-01-02T17:47:00.753Z,18.30
2023-01-02T17:49:14.491Z,22.95
2023-01-02T17:51:41.259Z,20.58
2023-01-02T17:54:08.359Z,21.90
2023-01-02T17:56:35.179Z,19.60
2023-01-02T17:59:03.551Z,18.00
2023-01-02T18:01:30.483Z,18.30
2023-01-02T18:03:57.676Z,19.25
2023-01-02T18:06:24.442Z,17.50
2023-01-02T18:08:54.541Z,14.75
2023-01-02T18:11:21.474Z,20.20
2023-01-02T18:13:52.788Z,19.20
2023-01-02T18:16:22.020Z,19.45
2023-01-02T18:18:49.756Z,19.98
2023-01-02T18:21:24.297Z,18.02
2023-01-02T18:23:54.793Z,21.63
2023-01-02T18:26:21.601Z,20.17
2023-01-02T18:28:57.427Z,21.92
2023-01-02T18:31:24.984Z,20.67
2023-01-02T18:33:54.550Z,21.00
2023-01-02T18:36:23.214Z,19.00
2023-01-02T18:38:56.676Z,21.25
2023-01-02T18:41:28.079Z,20.05
2023-01-02T18:44:07.040Z,23.40
2023-01-02T18:47:04.611Z,18.10
2023-01-02T18:49:26.767Z,20.10
2023-01-02T18:52:12.633Z,22.90
2023-01-02T18:54:41.362Z,21.23
2023-01-02T18:57:18.864Z,28.08
2023-01-02T18:59:46.984Z,24.13
2023-01-02T19:02:39.076Z,18.35
2023-01-02T19:05:37.637Z,21.20
2023-01-02T19:08:25.065Z,21.13
2023-01-02T19:10:56.398Z,17.85
2023-01-02T19:13:41.277Z,19.70
2023-01-02T19:16:14.160Z,19.38
2023-01-02T19:18:45.339Z,19.75
2023-01-02T19:21:16.214Z,20.48
2023-01-02T19:23:56.655Z,20.83
2023-01-02T19:26:26.815Z,16.73
2023-01-02T19:28:53.555Z,20.10
2023-01-02T19:31:20.671Z,17.10
2023-01-02T19:33:56.677Z,16.77
2023-01-02T19:36:30.032Z,15.45
2023-01-02T19:38:56.877Z,17.25
2023-01-02T19:41:43.932Z,19.30
2023-01-02T19:44:10.716Z,17.52
2023-01-02T19:46:37.813Z,15.75
2023-01-02T19:49:04.631Z,18.55
2023-01-02T19:51:32.325Z,15.10
2023-01-02T19:54:03.998Z,15.27
2023-01-02T19:56:31.734Z,15.65
2023-01-02T19:58:58.502Z,14.30
2023-01-02T20:01:25.749Z,16.77
2023-01-02T20:03:52.650Z,16.80
2023-01-02T20:06:19.725Z,16.85
2023-01-02T20:08:47.336Z,14.45
2023-01-02T20:11:34.431Z,15.98
2023-01-02T20:14:01.182Z,18.35
2023-01-02T20:16:29.819Z,18.17
2023-01-02T20:18:57.087Z,17.52
2023-01-02T20:21:25.598Z,16.38
2023-01-02T20:23:56.355Z,16.00
2023-01-02T20:26:23.820Z,17.88
2023-01-02T20:28:50.591Z,15.13
2023-01-02T20:31:17.747Z,19.55
2023-01-02T20:33:44.637Z,18.50
2023-01-02T20:36:13.860Z,17.55
2023-01-02T20:38:41.047Z,18.85
2023-01-02T20:41:08.172Z,16.42
2023-01-02T20:43:34.928Z,17.23
2023-01-02T20:46:02.088Z,15.65
2023-01-02T20:48:28.929Z,15.95
2023-01-02T20:50:56.265Z,16.27
2023-01-02T20:53:23.074Z,17.92
2023-01-02T20:55:50.203Z,17.92
2023-01-02T20:58:17.088Z,19.02
2023-01-02T21:00:44.255Z,16.15
2023-01-02T21:03:11.276Z,17.30
2023-01-02T21:05:39.559Z,20.33
2023-01-02T21:08:07.011Z,16.85
2023-01-02T21:10:34.894Z,16.98
2023-01-02T21:13:07.784Z,17.83
2023-01-02T21:15:53.640Z,17.00
2023-01-02T21:18:39.358Z,16.13
2023-01-02T21:21:12.795Z,18.02
2023-01-02T21:23:40.310Z,16.77
2023-01-02T21:26:08.576Z,18.08
2023-01-02T21:28:35.663Z,15.43
2023-01-02T21:31:02.956Z,17.13
2023-01-02T21:33:29.945Z,17.75
2023-01-02T21:36:01.088Z,18.98
2023-01-02T21:38:28.363Z,15.82
2023-01-02T21:40:55.773Z,16.35
2023-01-02T21:43:22.600Z,15.48
2023-01-02T21:45:50.017Z,16.45
2023-01-02T21:48:16.898Z,16.20
2023-01-02T21:50:43.983Z,16.90
2023-01-02T21:53:10.853Z,16.10
2023-01-02T21:55:37.925Z,15.57
2023-01-02T21:58:13.821Z,17.60
2023-01-02T22:00:41.925Z,18.88
2023-01-02T22:03:08.920Z,17.08
2023-01-02T22:05:36.151Z,19.90
2023-01-02T22:08:02.930Z,17.00
2023-01-02T22:10:30.221Z,15.95
2023-01-02T22:12:56.955Z,17.80
2023-01-02T22:15:24.049Z,19.23
2023-01-02T22:17:50.988Z,15.73
2023-01-02T22:20:18.213Z,18.20
2023-01-02T22:22:45.067Z,17.08
2023-01-02T22:25:12.165Z,16.60
2023-01-02T22:27:39.022Z,18.27
2023-01-02T22:30:21.556Z,17.17
2023-01-02T22:32:51.369Z,16.25
2023-01-02T22:35:18.618Z,16.58
2023-01-02T22:37:45.434Z,15.45
2023-01-02T22:40:12.695Z,16.23
2023-01-02T22:43:10.141Z,16.63
2023-01-02T22:45:41.649Z,16.60
2023-01-02T22:48:15.300Z,15.20
2023-01-02T22:50:43.679Z,15.90
2023-01-02T22:53:26.296Z,15.32
2023-01-02T22:55:53.560Z,17.30
2023-01-02T22:58:20.581Z,14.45
2023-01-02T23:00:49.473Z,15.98
2023-01-02T23:03:16.523Z,14.93
2023-01-02T23:05:43.592Z,16.75
2023-01-02T23:08:10.568Z,17.15
2023-01-02T23:10:37.876Z,16.90
2023-01-02T23:13:04.683Z,16.80
2023-01-02T23:15:31.769Z,16.05
2023-01-02T23:18:17.066Z,15.93
2023-01-02T23:20:44.159Z,16.63
2023-01-02T23:23:10.890Z,18.10
2023-01-02T23:25:41.558Z,17.08
2023-01-02T23:28:08.285Z,18.10
2023-01-02T23:30:35.363Z,18.02
2023-01-02T23:33:02.240Z,15.20
2023-01-02T23:35:29.376Z,17.85
2023-01-02T23:37:56.095Z,16.52
2023-01-02T23:40:23.251Z,16.38
2023-01-02T23:42:49.989Z,17.73
2023-01-02T23:45:17.090Z,19.63
2023-01-02T23:47:43.839Z,19.30
2023-01-02T23:50:11.110Z,16.13
2023-01-02T23:52:37.919Z,16.58
2023-01-02T23:55:05.310Z,14.90
2023-01-02T23:57:32.179Z,15.32
2023-01-02T23:59:59.245Z,15.18
